sensor_id;sensor_type;location;lat;lon;timestamp;P1;durP1;ratioP1;P2;durP2;ratioP2
3712;SDS011;1872;51.406;6.856;2023-07-13T00:00:02;4.40;;;3.10;;
3712;SDS011;1872;51.406;6.856;2023-07-13T00:02:33;3.80;;;3.00;;
3712;SDS011;1872;51.406;6.856;2023-07-13T00:04:59;4.27;;;3.07;;
3712;SDS011;1872;51.406;6.856;2023-07-13T00:07:25;3.20;;;2.90;;
3712;SDS011;1872;51.406;6.856;2023-07-13T00:09:50;6.40;;;3.20;;
3712;SDS011;1872;51.406;6.856;2023-07-13T00:12:27;3.47;;;3.17;;
3712;SDS011;1872;51.406;6.856;2023-07-13T00:14:56;4.30;;;3.10;;
3712;SDS011;1872;51.406;6.856;2023-07-13T00:17:22;6.43;;;2.77;;
3712;SDS011;1872;51.406;6.856;2023-07-13T00:19:48;3.70;;;2.80;;
3712;SDS011;1872;51.406;6.856;2023-07-13T00:22:14;3.90;;;2.40;;
3712;SDS011;1872;51.406;6.856;2023-07-13T00:24:40;3.10;;;2.80;;
3712;SDS011;1872;51.406;6.856;2023-07-13T00:27:07;3.57;;;2.90;;
3712;SDS011;1872;51.406;6.856;2023-07-13T00:29:34;5.07;;;2.73;;
3712;SDS011;1872;51.406;6.856;2023-07-13T00:32:00;3.23;;;2.93;;
3712;SDS011;1872;51.406;6.856;2023-07-13T00:34:26;4.67;;;3.60;;
3712;SDS011;1872;51.406;6.856;2023-07-13T00:36:52;3.93;;;2.87;;
3712;SDS011;1872;51.406;6.856;2023-07-13T00:39:18;6.87;;;3.40;;
3712;SDS011;1872;51.406;6.856;2023-07-13T00:41:45;5.70;;;3.03;;
3712;SDS011;1872;51.406;6.856;2023-07-13T00:44:14;3.53;;;2.80;;
3712;SDS011;1872;51.406;6.856;2023-07-13T00:46:41;3.27;;;2.97;;
3712;SDS011;1872;51.406;6.856;2023-07-13T00:49:07;4.50;;;3.10;;
3712;SDS011;1872;51.406;6.856;2023-07-13T00:51:46;3.80;;;2.80;;
3712;SDS011;1872;51.406;6.856;2023-07-13T00:54:17;3.77;;;2.90;;
3712;SDS011;1872;51.406;6.856;2023-07-13T00:56:48;4.60;;;3.00;;
3712;SDS011;1872;51.406;6.856;2023-07-13T00:59:17;4.30;;;2.53;;
3712;SDS011;1872;51.406;6.856;2023-07-13T01:01:44;4.13;;;2.70;;
3712;SDS011;1872;51.406;6.856;2023-07-13T01:04:10;3.30;;;2.70;;
3712;SDS011;1872;51.406;6.856;2023-07-13T01:06:36;3.00;;;2.70;;
3712;SDS011;1872;51.406;6.856;2023-07-13T01:09:04;5.40;;;2.87;;
3712;SDS011;1872;51.406;6.856;2023-07-13T01:11:33;4.30;;;3.53;;
3712;SDS011;1872;51.406;6.856;2023-07-13T01:13:59;3.13;;;2.80;;
3712;SDS011;1872;51.406;6.856;2023-07-13T01:16:27;7.43;;;2.80;;
3712;SDS011;1872;51.406;6.856;2023-07-13T01:18:59;2.80;;;2.60;;
3712;SDS011;1872;51.406;6.856;2023-07-13T01:21:26;4.70;;;2.50;;
3712;SDS011;1872;51.406;6.856;2023-07-13T01:23:53;3.10;;;2.80;;
3712;SDS011;1872;51.406;6.856;2023-07-13T01:26:19;4.00;;;2.90;;
3712;SDS011;1872;51.406;6.856;2023-07-13T01:28:44;4.03;;;3.43;;
3712;SDS011;1872;51.406;6.856;2023-07-13T01:31:10;8.20;;;3.43;;
3712;SDS011;1872;51.406;6.856;2023-07-13T01:33:37;3.50;;;3.20;;
3712;SDS011;1872;51.406;6.856;2023-07-13T01:36:05;4.47;;;3.47;;
3712;SDS011;1872;51.406;6.856;2023-07-13T01:38:34;3.30;;;2.70;;
3712;SDS011;1872;51.406;6.856;2023-07-13T01:41:01;17.93;;;3.20;;
3712;SDS011;1872;51.406;6.856;2023-07-13T01:43:27;3.60;;;2.97;;
3712;SDS011;1872;51.406;6.856;2023-07-13T01:45:53;4.40;;;3.00;;
3712;SDS011;1872;51.406;6.856;2023-07-13T01:48:18;3.03;;;2.80;;
3712;SDS011;1872;51.406;6.856;2023-07-13T01:50:45;3.87;;;3.30;;
3712;SDS011;1872;51.406;6.856;2023-07-13T01:53:10;4.50;;;2.73;;
3712;SDS011;1872;51.406;6.856;2023-07-13T01:55:36;3.20;;;2.90;;
3712;SDS011;1872;51.406;6.856;2023-07-13T01:58:02;3.23;;;2.87;;
3712;SDS011;1872;51.406;6.856;2023-07-13T02:00:28;5.73;;;3.00;;
3712;SDS011;1872;51.406;6.856;2023-07-13T02:02:54;5.80;;;3.10;;
3712;SDS011;1872;51.406;6.856;2023-07-13T02:05:20;4.10;;;3.13;;
3712;SDS011;1872;51.406;6.856;2023-07-13T02:07:45;3.13;;;2.73;;
3712;SDS011;1872;51.406;6.856;2023-07-13T02:10:11;3.70;;;3.40;;
3712;SDS011;1872;51.406;6.856;2023-07-13T02:12:37;3.93;;;3.03;;
3712;SDS011;1872;51.406;6.856;2023-07-13T02:15:04;5.00;;;3.47;;
3712;SDS011;1872;51.406;6.856;2023-07-13T02:17:30;2.87;;;2.60;;
3712;SDS011;1872;51.406;6.856;2023-07-13T02:19:57;4.87;;;3.87;;
3712;SDS011;1872;51.406;6.856;2023-07-13T02:22:23;3.53;;;2.93;;
3712;SDS011;1872;51.406;6.856;2023-07-13T02:24:49;3.57;;;3.00;;
3712;SDS011;1872;51.406;6.856;2023-07-13T02:27:15;5.63;;;2.90;;
3712;SDS011;1872;51.406;6.856;2023-07-13T02:29:41;4.33;;;2.73;;
3712;SDS011;1872;51.406;6.856;2023-07-13T02:32:07;3.87;;;2.27;;
3712;SDS011;1872;51.406;6.856;2023-07-13T02:34:33;4.60;;;2.87;;
3712;SDS011;1872;51.406;6.856;2023-07-13T02:36:59;5.30;;;2.63;;
3712;SDS011;1872;51.406;6.856;2023-07-13T02:39:24;5.20;;;2.90;;
3712;SDS011;1872;51.406;6.856;2023-07-13T02:41:50;2.67;;;2.47;;
3712;SDS011;1872;51.406;6.856;2023-07-13T02:44:16;5.23;;;3.63;;
3712;SDS011;1872;51.406;6.856;2023-07-13T02:46:41;3.83;;;2.80;;
3712;SDS011;1872;51.406;6.856;2023-07-13T02:49:07;3.13;;;2.50;;
3712;SDS011;1872;51.406;6.856;2023-07-13T02:51:33;4.37;;;3.00;;
3712;SDS011;1872;51.406;6.856;2023-07-13T02:54:00;3.07;;;2.77;;
3712;SDS011;1872;51.406;6.856;2023-07-13T02:56:27;6.77;;;3.20;;
3712;SDS011;1872;51.406;6.856;2023-07-13T02:58:53;6.77;;;3.43;;
3712;SDS011;1872;51.406;6.856;2023-07-13T03:01:20;3.90;;;3.10;;
3712;SDS011;1872;51.406;6.856;2023-07-13T03:03:47;5.63;;;3.03;;
3712;SDS011;1872;51.406;6.856;2023-07-13T03:06:16;5.60;;;2.90;;
3712;SDS011;1872;51.406;6.856;2023-07-13T03:08:43;3.50;;;2.53;;
3712;SDS011;1872;51.406;6.856;2023-07-13T03:11:13;6.37;;;3.50;;
3712;SDS011;1872;51.406;6.856;2023-07-13T03:13:41;3.10;;;2.50;;
3712;SDS011;1872;51.406;6.856;2023-07-13T03:16:08;3.53;;;3.07;;
3712;SDS011;1872;51.406;6.856;2023-07-13T03:18:35;3.70;;;2.77;;
3712;SDS011;1872;51.406;6.856;2023-07-13T03:21:01;6.93;;;3.10;;
3712;SDS011;1872;51.406;6.856;2023-07-13T03:23:28;6.80;;;3.30;;
3712;SDS011;1872;51.406;6.856;2023-07-13T03:28:34;3.07;;;2.77;;
3712;SDS011;1872;51.406;6.856;2023-07-13T03:31:08;3.87;;;2.90;;
3712;SDS011;1872;51.406;6.856;2023-07-13T03:33:36;3.20;;;3.00;;
3712;SDS011;1872;51.406;6.856;2023-07-13T03:36:02;3.77;;;3.20;;
3712;SDS011;1872;51.406;6.856;2023-07-13T03:38:29;2.93;;;2.60;;
3712;SDS011;1872;51.406;6.856;2023-07-13T03:40:55;6.33;;;3.03;;
3712;SDS011;1872;51.406;6.856;2023-07-13T03:43:20;4.87;;;3.10;;
3712;SDS011;1872;51.406;6.856;2023-07-13T03:45:46;4.43;;;3.87;;
3712;SDS011;1872;51.406;6.856;2023-07-13T03:48:12;3.87;;;3.40;;
3712;SDS011;1872;51.406;6.856;2023-07-13T03:50:39;7.77;;;3.47;;
3712;SDS011;1872;51.406;6.856;2023-07-13T03:53:05;4.70;;;3.13;;
3712;SDS011;1872;51.406;6.856;2023-07-13T03:55:30;5.03;;;3.77;;
3712;SDS011;1872;51.406;6.856;2023-07-13T03:58:01;6.53;;;2.87;;
3712;SDS011;1872;51.406;6.856;2023-07-13T04:00:55;5.33;;;3.50;;
3712;SDS011;1872;51.406;6.856;2023-07-13T04:03:22;6.33;;;3.57;;
3712;SDS011;1872;51.406;6.856;2023-07-13T04:05:48;4.10;;;2.93;;
3712;SDS011;1872;51.406;6.856;2023-07-13T04:08:14;3.80;;;2.80;;
3712;SDS011;1872;51.406;6.856;2023-07-13T04:10:40;6.07;;;2.63;;
3712;SDS011;1872;51.406;6.856;2023-07-13T04:13:05;3.20;;;2.90;;
3712;SDS011;1872;51.406;6.856;2023-07-13T04:15:31;4.97;;;3.40;;
3712;SDS011;1872;51.406;6.856;2023-07-13T04:17:57;5.60;;;3.37;;
3712;SDS011;1872;51.406;6.856;2023-07-13T04:20:24;2.90;;;2.70;;
3712;SDS011;1872;51.406;6.856;2023-07-13T04:22:51;6.07;;;3.00;;
3712;SDS011;1872;51.406;6.856;2023-07-13T04:25:18;4.77;;;2.90;;
3712;SDS011;1872;51.406;6.856;2023-07-13T04:27:44;2.97;;;2.57;;
3712;SDS011;1872;51.406;6.856;2023-07-13T04:30:09;8.40;;;3.23;;
3712;SDS011;1872;51.406;6.856;2023-07-13T04:32:35;3.57;;;2.97;;
3712;SDS011;1872;51.406;6.856;2023-07-13T04:35:01;4.57;;;2.67;;
3712;SDS011;1872;51.406;6.856;2023-07-13T04:37:26;3.00;;;2.80;;
3712;SDS011;1872;51.406;6.856;2023-07-13T04:39:52;4.03;;;2.77;;
3712;SDS011;1872;51.406;6.856;2023-07-13T04:42:18;3.03;;;2.80;;
3712;SDS011;1872;51.406;6.856;2023-07-13T04:44:50;3.10;;;2.87;;
3712;SDS011;1872;51.406;6.856;2023-07-13T04:47:16;4.00;;;3.13;;
3712;SDS011;1872;51.406;6.856;2023-07-13T04:49:42;3.30;;;2.57;;
3712;SDS011;1872;51.406;6.856;2023-07-13T04:52:09;3.00;;;2.77;;
3712;SDS011;1872;51.406;6.856;2023-07-13T04:54:34;9.30;;;3.50;;
3712;SDS011;1872;51.406;6.856;2023-07-13T04:57:00;4.90;;;3.13;;
3712;SDS011;1872;51.406;6.856;2023-07-13T04:59:26;6.20;;;3.00;;
3712;SDS011;1872;51.406;6.856;2023-07-13T05:01:52;7.53;;;4.00;;
3712;SDS011;1872;51.406;6.856;2023-07-13T05:04:18;3.43;;;3.03;;
3712;SDS011;1872;51.406;6.856;2023-07-13T05:06:44;3.20;;;2.90;;
3712;SDS011;1872;51.406;6.856;2023-07-13T05:09:09;4.27;;;2.77;;
3712;SDS011;1872;51.406;6.856;2023-07-13T05:11:35;4.07;;;2.90;;
3712;SDS011;1872;51.406;6.856;2023-07-13T05:14:01;5.37;;;3.03;;
3712;SDS011;1872;51.406;6.856;2023-07-13T05:16:27;4.67;;;3.07;;
3712;SDS011;1872;51.406;6.856;2023-07-13T05:18:53;6.00;;;3.20;;
3712;SDS011;1872;51.406;6.856;2023-07-13T05:21:19;3.87;;;3.47;;
3712;SDS011;1872;51.406;6.856;2023-07-13T05:23:44;4.33;;;3.77;;
3712;SDS011;1872;51.406;6.856;2023-07-13T05:26:10;3.30;;;3.00;;
3712;SDS011;1872;51.406;6.856;2023-07-13T05:28:36;5.23;;;3.43;;
3712;SDS011;1872;51.406;6.856;2023-07-13T05:31:02;4.97;;;2.97;;
3712;SDS011;1872;51.406;6.856;2023-07-13T05:33:29;4.03;;;3.17;;
3712;SDS011;1872;51.406;6.856;2023-07-13T05:35:55;4.70;;;2.87;;
3712;SDS011;1872;51.406;6.856;2023-07-13T05:38:20;5.30;;;3.50;;
3712;SDS011;1872;51.406;6.856;2023-07-13T05:40:46;4.20;;;2.80;;
3712;SDS011;1872;51.406;6.856;2023-07-13T05:43:12;4.30;;;3.10;;
3712;SDS011;1872;51.406;6.856;2023-07-13T05:45:39;4.70;;;4.27;;
3712;SDS011;1872;51.406;6.856;2023-07-13T05:48:04;5.53;;;3.47;;
3712;SDS011;1872;51.406;6.856;2023-07-13T05:50:30;3.60;;;3.00;;
3712;SDS011;1872;51.406;6.856;2023-07-13T05:52:56;4.97;;;3.50;;
3712;SDS011;1872;51.406;6.856;2023-07-13T05:55:22;6.27;;;3.40;;
3712;SDS011;1872;51.406;6.856;2023-07-13T05:57:48;9.07;;;5.90;;
3712;SDS011;1872;51.406;6.856;2023-07-13T06:00:13;7.43;;;3.53;;
3712;SDS011;1872;51.406;6.856;2023-07-13T06:02:40;5.73;;;3.27;;
3712;SDS011;1872;51.406;6.856;2023-07-13T06:05:05;5.23;;;3.40;;
3712;SDS011;1872;51.406;6.856;2023-07-13T06:07:31;5.87;;;3.80;;
3712;SDS011;1872;51.406;6.856;2023-07-13T06:09:57;4.00;;;3.60;;
3712;SDS011;1872;51.406;6.856;2023-07-13T06:12:24;6.67;;;4.20;;
3712;SDS011;1872;51.406;6.856;2023-07-13T06:14:50;4.90;;;3.53;;
3712;SDS011;1872;51.406;6.856;2023-07-13T06:17:15;4.37;;;3.97;;
3712;SDS011;1872;51.406;6.856;2023-07-13T06:19:41;6.53;;;4.80;;
3712;SDS011;1872;51.406;6.856;2023-07-13T06:22:07;4.00;;;3.60;;
3712;SDS011;1872;51.406;6.856;2023-07-13T06:24:32;9.37;;;3.80;;
3712;SDS011;1872;51.406;6.856;2023-07-13T06:27:00;4.50;;;3.80;;
3712;SDS011;1872;51.406;6.856;2023-07-13T06:29:26;7.47;;;4.03;;
3712;SDS011;1872;51.406;6.856;2023-07-13T06:31:52;6.83;;;4.00;;
3712;SDS011;1872;51.406;6.856;2023-07-13T06:34:17;5.27;;;3.97;;
3712;SDS011;1872;51.406;6.856;2023-07-13T06:36:43;6.93;;;4.10;;
3712;SDS011;1872;51.406;6.856;2023-07-13T06:39:09;6.80;;;3.80;;
3712;SDS011;1872;51.406;6.856;2023-07-13T06:41:35;8.13;;;4.37;;
3712;SDS011;1872;51.406;6.856;2023-07-13T06:44:00;7.43;;;4.50;;
3712;SDS011;1872;51.406;6.856;2023-07-13T06:46:28;6.47;;;5.87;;
3712;SDS011;1872;51.406;6.856;2023-07-13T06:48:55;5.13;;;3.90;;
3712;SDS011;1872;51.406;6.856;2023-07-13T06:51:21;6.40;;;4.27;;
3712;SDS011;1872;51.406;6.856;2023-07-13T06:53:46;10.33;;;5.83;;
3712;SDS011;1872;51.406;6.856;2023-07-13T06:56:12;7.20;;;4.33;;
3712;SDS011;1872;51.406;6.856;2023-07-13T06:58:38;5.03;;;4.07;;
3712;SDS011;1872;51.406;6.856;2023-07-13T07:01:04;6.53;;;5.00;;
3712;SDS011;1872;51.406;6.856;2023-07-13T07:03:30;5.17;;;3.70;;
3712;SDS011;1872;51.406;6.856;2023-07-13T07:08:40;6.63;;;4.97;;
3712;SDS011;1872;51.406;6.856;2023-07-13T07:11:07;7.87;;;5.10;;
3712;SDS011;1872;51.406;6.856;2023-07-13T07:13:36;7.60;;;4.00;;
3712;SDS011;1872;51.406;6.856;2023-07-13T07:16:02;6.20;;;4.30;;
3712;SDS011;1872;51.406;6.856;2023-07-13T07:18:29;7.00;;;5.10;;
3712;SDS011;1872;51.406;6.856;2023-07-13T07:20:54;5.10;;;4.60;;
3712;SDS011;1872;51.406;6.856;2023-07-13T07:23:20;7.73;;;4.40;;
3712;SDS011;1872;51.406;6.856;2023-07-13T07:25:47;6.70;;;4.40;;
3712;SDS011;1872;51.406;6.856;2023-07-13T07:28:14;5.23;;;4.67;;
3712;SDS011;1872;51.406;6.856;2023-07-13T07:30:45;8.27;;;5.67;;
3712;SDS011;1872;51.406;6.856;2023-07-13T07:33:11;8.80;;;5.07;;
3712;SDS011;1872;51.406;6.856;2023-07-13T07:35:36;8.30;;;5.17;;
3712;SDS011;1872;51.406;6.856;2023-07-13T07:38:02;6.30;;;5.00;;
3712;SDS011;1872;51.406;6.856;2023-07-13T07:40:28;5.20;;;4.27;;
3712;SDS011;1872;51.406;6.856;2023-07-13T07:42:54;6.00;;;4.30;;
3712;SDS011;1872;51.406;6.856;2023-07-13T07:45:20;10.60;;;4.90;;
3712;SDS011;1872;51.406;6.856;2023-07-13T07:47:46;4.70;;;4.30;;
3712;SDS011;1872;51.406;6.856;2023-07-13T07:50:12;6.00;;;5.20;;
3712;SDS011;1872;51.406;6.856;2023-07-13T07:52:38;7.93;;;5.03;;
3712;SDS011;1872;51.406;6.856;2023-07-13T07:55:04;8.10;;;4.80;;
3712;SDS011;1872;51.406;6.856;2023-07-13T07:57:31;4.63;;;4.23;;
3712;SDS011;1872;51.406;6.856;2023-07-13T07:59:57;6.90;;;5.30;;
3712;SDS011;1872;51.406;6.856;2023-07-13T08:02:23;5.57;;;4.97;;
3712;SDS011;1872;51.406;6.856;2023-07-13T08:04:49;7.20;;;5.00;;
3712;SDS011;1872;51.406;6.856;2023-07-13T08:07:15;5.20;;;4.70;;
3712;SDS011;1872;51.406;6.856;2023-07-13T08:09:41;5.30;;;4.23;;
3712;SDS011;1872;51.406;6.856;2023-07-13T08:12:06;7.00;;;4.50;;
3712;SDS011;1872;51.406;6.856;2023-07-13T08:14:32;6.20;;;4.80;;
3712;SDS011;1872;51.406;6.856;2023-07-13T08:16:58;5.50;;;4.70;;
3712;SDS011;1872;51.406;6.856;2023-07-13T08:19:24;5.40;;;4.90;;
3712;SDS011;1872;51.406;6.856;2023-07-13T08:21:49;6.57;;;5.10;;
3712;SDS011;1872;51.406;6.856;2023-07-13T08:24:15;6.23;;;5.00;;
3712;SDS011;1872;51.406;6.856;2023-07-13T08:26:43;5.60;;;4.87;;
3712;SDS011;1872;51.406;6.856;2023-07-13T08:29:09;4.60;;;4.20;;
3712;SDS011;1872;51.406;6.856;2023-07-13T08:31:35;6.60;;;5.00;;
3712;SDS011;1872;51.406;6.856;2023-07-13T08:34:00;6.70;;;5.00;;
3712;SDS011;1872;51.406;6.856;2023-07-13T08:36:26;5.43;;;4.53;;
3712;SDS011;1872;51.406;6.856;2023-07-13T08:38:52;5.83;;;4.67;;
3712;SDS011;1872;51.406;6.856;2023-07-13T08:41:18;7.47;;;4.90;;
3712;SDS011;1872;51.406;6.856;2023-07-13T08:43:46;4.60;;;4.20;;
3712;SDS011;1872;51.406;6.856;2023-07-13T08:46:17;6.33;;;4.40;;
3712;SDS011;1872;51.406;6.856;2023-07-13T08:48:50;5.37;;;4.20;;
3712;SDS011;1872;51.406;6.856;2023-07-13T08:53:46;6.23;;;4.83;;
3712;SDS011;1872;51.406;6.856;2023-07-13T08:56:21;5.50;;;4.40;;
3712;SDS011;1872;51.406;6.856;2023-07-13T08:58:50;9.37;;;5.23;;
3712;SDS011;1872;51.406;6.856;2023-07-13T09:01:32;7.90;;;4.37;;
3712;SDS011;1872;51.406;6.856;2023-07-13T09:04:14;6.03;;;4.57;;
3712;SDS011;1872;51.406;6.856;2023-07-13T09:09:55;5.43;;;4.27;;
3712;SDS011;1872;51.406;6.856;2023-07-13T09:16:00;5.03;;;4.53;;
3712;SDS011;1872;51.406;6.856;2023-07-13T09:20:40;5.53;;;4.60;;
3712;SDS011;1872;51.406;6.856;2023-07-13T09:23:17;7.20;;;3.90;;
3712;SDS011;1872;51.406;6.856;2023-07-13T09:25:47;6.37;;;4.10;;
3712;SDS011;1872;51.406;6.856;2023-07-13T09:28:23;3.97;;;3.67;;
3712;SDS011;1872;51.406;6.856;2023-07-13T09:30:58;5.47;;;4.27;;
3712;SDS011;1872;51.406;6.856;2023-07-13T09:33:29;6.43;;;4.53;;
3712;SDS011;1872;51.406;6.856;2023-07-13T09:35:56;6.90;;;4.30;;
3712;SDS011;1872;51.406;6.856;2023-07-13T09:38:27;8.47;;;5.90;;
3712;SDS011;1872;51.406;6.856;2023-07-13T09:44:00;5.13;;;4.57;;
3712;SDS011;1872;51.406;6.856;2023-07-13T09:46:36;7.80;;;5.00;;
3712;SDS011;1872;51.406;6.856;2023-07-13T09:49:03;6.03;;;4.87;;
3712;SDS011;1872;51.406;6.856;2023-07-13T09:51:29;4.93;;;4.40;;
3712;SDS011;1872;51.406;6.856;2023-07-13T09:53:55;5.53;;;4.20;;
3712;SDS011;1872;51.406;6.856;2023-07-13T09:58:47;13.10;;;5.33;;
3712;SDS011;1872;51.406;6.856;2023-07-13T10:01:13;5.53;;;4.60;;
3712;SDS011;1872;51.406;6.856;2023-07-13T10:03:39;5.90;;;4.57;;
3712;SDS011;1872;51.406;6.856;2023-07-13T10:06:14;5.20;;;4.73;;
3712;SDS011;1872;51.406;6.856;2023-07-13T10:08:45;7.63;;;5.00;;
3712;SDS011;1872;51.406;6.856;2023-07-13T10:11:18;5.77;;;4.57;;
3712;SDS011;1872;51.406;6.856;2023-07-13T10:13:54;5.77;;;4.10;;
3712;SDS011;1872;51.406;6.856;2023-07-13T10:16:34;5.80;;;4.60;;
3712;SDS011;1872;51.406;6.856;2023-07-13T10:19:10;6.43;;;4.47;;
3712;SDS011;1872;51.406;6.856;2023-07-13T10:21:47;5.30;;;4.90;;
3712;SDS011;1872;51.406;6.856;2023-07-13T10:24:17;5.47;;;3.90;;
3712;SDS011;1872;51.406;6.856;2023-07-13T10:26:47;7.47;;;4.47;;
3712;SDS011;1872;51.406;6.856;2023-07-13T10:29:18;5.30;;;4.03;;
3712;SDS011;1872;51.406;6.856;2023-07-13T10:31:47;6.00;;;4.00;;
3712;SDS011;1872;51.406;6.856;2023-07-13T10:34:13;5.53;;;4.00;;
3712;SDS011;1872;51.406;6.856;2023-07-13T10:36:43;5.33;;;4.80;;
3712;SDS011;1872;51.406;6.856;2023-07-13T10:39:18;4.70;;;4.00;;
3712;SDS011;1872;51.406;6.856;2023-07-13T10:41:46;5.40;;;4.30;;
3712;SDS011;1872;51.406;6.856;2023-07-13T10:44:25;5.30;;;4.17;;
3712;SDS011;1872;51.406;6.856;2023-07-13T10:47:13;5.73;;;5.10;;
3712;SDS011;1872;51.406;6.856;2023-07-13T10:49:43;10.30;;;4.90;;
3712;SDS011;1872;51.406;6.856;2023-07-13T10:58:43;4.80;;;4.13;;
3712;SDS011;1872;51.406;6.856;2023-07-13T11:03:50;6.03;;;4.50;;
3712;SDS011;1872;51.406;6.856;2023-07-13T11:09:39;5.30;;;4.80;;
3712;SDS011;1872;51.406;6.856;2023-07-13T11:12:28;7.50;;;4.80;;
3712;SDS011;1872;51.406;6.856;2023-07-13T11:22:50;7.83;;;4.40;;
3712;SDS011;1872;51.406;6.856;2023-07-13T11:27:52;5.20;;;4.70;;
3712;SDS011;1872;51.406;6.856;2023-07-13T11:30:47;5.70;;;4.40;;
3712;SDS011;1872;51.406;6.856;2023-07-13T11:33:25;5.00;;;3.70;;
3712;SDS011;1872;51.406;6.856;2023-07-13T11:41:05;4.63;;;4.03;;
3712;SDS011;1872;51.406;6.856;2023-07-13T11:43:51;6.93;;;4.67;;
3712;SDS011;1872;51.406;6.856;2023-07-13T11:46:20;5.57;;;4.13;;
3712;SDS011;1872;51.406;6.856;2023-07-13T11:48:48;4.47;;;4.00;;
3712;SDS011;1872;51.406;6.856;2023-07-13T11:51:17;4.77;;;3.90;;
3712;SDS011;1872;51.406;6.856;2023-07-13T11:53:53;6.43;;;3.60;;
3712;SDS011;1872;51.406;6.856;2023-07-13T11:56:21;6.20;;;3.60;;
3712;SDS011;1872;51.406;6.856;2023-07-13T11:58:49;4.53;;;3.83;;
3712;SDS011;1872;51.406;6.856;2023-07-13T12:01:28;4.07;;;3.77;;
3712;SDS011;1872;51.406;6.856;2023-07-13T12:03:57;3.67;;;3.20;;
3712;SDS011;1872;51.406;6.856;2023-07-13T12:06:29;4.10;;;3.47;;
3712;SDS011;1872;51.406;6.856;2023-07-13T12:09:01;4.67;;;3.70;;
3712;SDS011;1872;51.406;6.856;2023-07-13T12:11:29;4.30;;;3.00;;
3712;SDS011;1872;51.406;6.856;2023-07-13T12:13:59;5.27;;;4.40;;
3712;SDS011;1872;51.406;6.856;2023-07-13T12:18:57;3.40;;;3.00;;
3712;SDS011;1872;51.406;6.856;2023-07-13T12:21:37;3.43;;;3.13;;
3712;SDS011;1872;51.406;6.856;2023-07-13T12:24:05;3.60;;;3.30;;
3712;SDS011;1872;51.406;6.856;2023-07-13T12:26:40;5.20;;;3.60;;
3712;SDS011;1872;51.406;6.856;2023-07-13T12:29:06;3.80;;;3.47;;
3712;SDS011;1872;51.406;6.856;2023-07-13T12:31:43;3.60;;;3.30;;
3712;SDS011;1872;51.406;6.856;2023-07-13T12:34:20;5.30;;;3.37;;
3712;SDS011;1872;51.406;6.856;2023-07-13T12:41:43;4.53;;;3.47;;
3712;SDS011;1872;51.406;6.856;2023-07-13T12:44:11;3.20;;;2.90;;
3712;SDS011;1872;51.406;6.856;2023-07-13T12:46:50;5.10;;;3.50;;
3712;SDS011;1872;51.406;6.856;2023-07-13T12:49:18;3.80;;;3.43;;
3712;SDS011;1872;51.406;6.856;2023-07-13T12:51:50;3.90;;;3.50;;
3712;SDS011;1872;51.406;6.856;2023-07-13T12:54:17;5.47;;;3.53;;
3712;SDS011;1872;51.406;6.856;2023-07-13T12:56:44;3.83;;;3.23;;
3712;SDS011;1872;51.406;6.856;2023-07-13T12:59:16;4.80;;;3.60;;
3712;SDS011;1872;51.406;6.856;2023-07-13T13:01:45;3.70;;;3.40;;
3712;SDS011;1872;51.406;6.856;2023-07-13T13:04:13;3.73;;;3.17;;
3712;SDS011;1872;51.406;6.856;2023-07-13T13:06:38;4.03;;;3.63;;
3712;SDS011;1872;51.406;6.856;2023-07-13T13:09:09;4.53;;;3.37;;
3712;SDS011;1872;51.406;6.856;2023-07-13T13:11:38;4.10;;;3.70;;
3712;SDS011;1872;51.406;6.856;2023-07-13T13:14:05;7.40;;;3.67;;
3712;SDS011;1872;51.406;6.856;2023-07-13T13:16:33;4.07;;;3.67;;
3712;SDS011;1872;51.406;6.856;2023-07-13T13:19:15;5.10;;;3.87;;
3712;SDS011;1872;51.406;6.856;2023-07-13T13:21:43;3.97;;;3.53;;
3712;SDS011;1872;51.406;6.856;2023-07-13T13:24:13;4.47;;;4.07;;
3712;SDS011;1872;51.406;6.856;2023-07-13T13:26:42;5.60;;;4.07;;
3712;SDS011;1872;51.406;6.856;2023-07-13T13:29:13;5.20;;;3.83;;
3712;SDS011;1872;51.406;6.856;2023-07-13T13:31:41;6.10;;;4.03;;
3712;SDS011;1872;51.406;6.856;2023-07-13T13:34:09;6.80;;;4.00;;
3712;SDS011;1872;51.406;6.856;2023-07-13T13:36:35;4.50;;;3.33;;
3712;SDS011;1872;51.406;6.856;2023-07-13T13:39:01;5.83;;;3.67;;
3712;SDS011;1872;51.406;6.856;2023-07-13T13:41:27;4.23;;;3.83;;
3712;SDS011;1872;51.406;6.856;2023-07-13T13:43:53;4.37;;;3.53;;
3712;SDS011;1872;51.406;6.856;2023-07-13T13:46:19;3.67;;;3.37;;
3712;SDS011;1872;51.406;6.856;2023-07-13T13:48:47;3.40;;;3.13;;
3712;SDS011;1872;51.406;6.856;2023-07-13T13:51:23;6.43;;;3.90;;
3712;SDS011;1872;51.406;6.856;2023-07-13T13:53:50;4.00;;;3.27;;
3712;SDS011;1872;51.406;6.856;2023-07-13T13:56:17;3.97;;;3.67;;
3712;SDS011;1872;51.406;6.856;2023-07-13T13:58:43;3.70;;;3.40;;
3712;SDS011;1872;51.406;6.856;2023-07-13T14:01:12;3.40;;;3.10;;
3712;SDS011;1872;51.406;6.856;2023-07-13T14:03:44;3.60;;;3.30;;
3712;SDS011;1872;51.406;6.856;2023-07-13T14:06:14;3.80;;;3.50;;
3712;SDS011;1872;51.406;6.856;2023-07-13T14:08:42;3.77;;;3.47;;
3712;SDS011;1872;51.406;6.856;2023-07-13T14:11:12;3.83;;;3.53;;
3712;SDS011;1872;51.406;6.856;2023-07-13T14:13:48;3.87;;;3.53;;
3712;SDS011;1872;51.406;6.856;2023-07-13T14:16:21;4.93;;;3.00;;
3712;SDS011;1872;51.406;6.856;2023-07-13T14:18:48;4.83;;;3.80;;
3712;SDS011;1872;51.406;6.856;2023-07-13T14:21:15;8.37;;;4.13;;
3712;SDS011;1872;51.406;6.856;2023-07-13T14:23:43;7.53;;;4.87;;
3712;SDS011;1872;51.406;6.856;2023-07-13T14:26:11;4.37;;;4.00;;
3712;SDS011;1872;51.406;6.856;2023-07-13T14:28:41;5.87;;;4.43;;
3712;SDS011;1872;51.406;6.856;2023-07-13T14:31:09;7.43;;;5.20;;
3712;SDS011;1872;51.406;6.856;2023-07-13T14:33:35;6.97;;;4.90;;
3712;SDS011;1872;51.406;6.856;2023-07-13T14:36:02;8.50;;;4.27;;
3712;SDS011;1872;51.406;6.856;2023-07-13T14:38:38;5.43;;;4.90;;
3712;SDS011;1872;51.406;6.856;2023-07-13T14:41:04;6.80;;;5.00;;
3712;SDS011;1872;51.406;6.856;2023-07-13T14:43:30;5.63;;;5.00;;
3712;SDS011;1872;51.406;6.856;2023-07-13T14:45:55;6.40;;;5.77;;
3712;SDS011;1872;51.406;6.856;2023-07-13T14:48:22;8.80;;;5.83;;
3712;SDS011;1872;51.406;6.856;2023-07-13T14:50:56;5.13;;;4.50;;
3712;SDS011;1872;51.406;6.856;2023-07-13T14:53:24;5.73;;;5.20;;
3712;SDS011;1872;51.406;6.856;2023-07-13T14:55:52;8.30;;;5.53;;
3712;SDS011;1872;51.406;6.856;2023-07-13T14:58:18;7.90;;;4.97;;
3712;SDS011;1872;51.406;6.856;2023-07-13T15:00:44;7.10;;;5.17;;
3712;SDS011;1872;51.406;6.856;2023-07-13T15:03:17;6.20;;;5.60;;
3712;SDS011;1872;51.406;6.856;2023-07-13T15:05:48;6.77;;;5.23;;
3712;SDS011;1872;51.406;6.856;2023-07-13T15:08:14;7.97;;;4.60;;
3712;SDS011;1872;51.406;6.856;2023-07-13T15:10:40;5.93;;;5.10;;
3712;SDS011;1872;51.406;6.856;2023-07-13T15:13:16;6.50;;;4.77;;
3712;SDS011;1872;51.406;6.856;2023-07-13T15:15:45;5.83;;;4.27;;
3712;SDS011;1872;51.406;6.856;2023-07-13T15:18:13;5.87;;;5.30;;
3712;SDS011;1872;51.406;6.856;2023-07-13T15:20:42;5.23;;;4.80;;
3712;SDS011;1872;51.406;6.856;2023-07-13T15:23:13;6.20;;;5.10;;
3712;SDS011;1872;51.406;6.856;2023-07-13T15:25:41;6.43;;;4.83;;
3712;SDS011;1872;51.406;6.856;2023-07-13T15:28:08;4.97;;;4.17;;
3712;SDS011;1872;51.406;6.856;2023-07-13T15:30:45;3.90;;;3.60;;
3712;SDS011;1872;51.406;6.856;2023-07-13T15:33:17;4.43;;;4.00;;
3712;SDS011;1872;51.406;6.856;2023-07-13T15:35:54;4.17;;;3.77;;
3712;SDS011;1872;51.406;6.856;2023-07-13T15:38:23;5.47;;;4.30;;
3712;SDS011;1872;51.406;6.856;2023-07-13T15:41:04;3.70;;;3.30;;
3712;SDS011;1872;51.406;6.856;2023-07-13T15:43:49;3.60;;;3.30;;
3712;SDS011;1872;51.406;6.856;2023-07-13T15:46:19;3.20;;;2.90;;
3712;SDS011;1872;51.406;6.856;2023-07-13T15:48:47;3.73;;;3.43;;
3712;SDS011;1872;51.406;6.856;2023-07-13T15:51:20;2.90;;;2.70;;
3712;SDS011;1872;51.406;6.856;2023-07-13T15:53:56;3.60;;;3.10;;
3712;SDS011;1872;51.406;6.856;2023-07-13T15:56:25;3.70;;;3.00;;
3712;SDS011;1872;51.406;6.856;2023-07-13T15:58:52;3.53;;;2.90;;
3712;SDS011;1872;51.406;6.856;2023-07-13T16:01:19;3.33;;;3.00;;
3712;SDS011;1872;51.406;6.856;2023-07-13T16:03:46;3.10;;;2.90;;
3712;SDS011;1872;51.406;6.856;2023-07-13T16:06:12;4.00;;;3.20;;
3712;SDS011;1872;51.406;6.856;2023-07-13T16:08:48;4.00;;;3.70;;
3712;SDS011;1872;51.406;6.856;2023-07-13T16:11:23;4.13;;;3.83;;
3712;SDS011;1872;51.406;6.856;2023-07-13T16:13:50;5.10;;;3.47;;
3712;SDS011;1872;51.406;6.856;2023-07-13T16:16:20;3.50;;;3.07;;
3712;SDS011;1872;51.406;6.856;2023-07-13T16:18:54;4.30;;;3.93;;